Date,TemperatureHighF,TemperatureAvgF,TemperatureLowF,DewpointHighF,DewpointAvgF,DewpointLowF,HumidityHigh,HumidityAvg,HumidityLow,PressureMaxIn,PressureMinIn,WindSpeedMaxMPH,WindSpeedAvgMPH,GustSpeedMaxMPH,PrecipitationSumIn
2013-1-1,27,24,20,19,16,13,76,69,64,0.00,40.00,7,3,0,0.00
2013-1-2,26,22,16,19,15,8,79,72,62,0.00,40.00,7,5,0,0.00
2013-1-3,31,24,15,25,18,6,86,75,62,0.00,40.00,10,6,0,0.00
2013-1-4,34,28,23,24,21,17,81,73,62,0.00,40.00,14,10,0,0.00
2013-1-5,36,29,22,30,24,19,94,80,61,0.00,40.00,9,5,0,0.01
2013-1-6,35,33,31,31,28,23,88,79,66,0.00,40.00,11,8,0,0.01
2013-1-7,36,29,22,24,20,17,89,69,45,0.00,40.00,12,7,0,0.00
2013-1-8,38,32,26,26,24,21,82,71,61,0.00,40.00,9,6,0,0.00
2013-1-9,46,40,34,32,29,26,78,66,46,0.00,40.00,15,10,0,0.01
2013-1-10,41,34,26,32,27,24,92,78,58,0.00,40.00,10,5,0,0.12
2013-1-11,53,47,37,50,44,34,95,89,84,0.00,40.00,11,8,0,0.44
2013-1-12,56,49,39,46,42,34,86,76,65,0.00,40.00,11,7,0,0.06
2013-1-13,38,32,24,36,30,18,95,91,79,0.00,40.00,9,3,0,0.10
2013-1-14,24,22,18,18,16,14,85,76,69,0.00,40.00,0,0,0,0.00
2013-1-15,30,21,13,19,15,11,91,78,57,0.00,40.00,3,0,0,0.01
2013-1-16,35,26,16,28,19,14,91,76,46,0.00,40.00,13,6,0,0.00
2013-1-17,35,29,23,28,18,12,75,63,56,0.00,40.00,13,9,0,0.00
2013-1-18,38,30,24,24,18,12,72,60,53,0.00,40.00,13,8,0,0.00
2013-1-19,45,41,36,34,29,25,70,62,56,0.00,40.00,16,10,0,0.00
2013-1-20,41,21,17,25,11,6,79,66,46,0.00,40.00,21,11,0,0.00
2013-1-21,19,13,8,12,6,2,89,75,58,0.00,40.00,11,9,0,0.00
2013-1-22,11,8,5,8,4,1,87,83,77,0.00,40.00,10,6,0,0.00
2013-1-23,18,12,7,17,10,4,92,88,86,0.00,40.00,6,3,0,0.00
2013-1-24,16,12,6,12,5,-1,89,73,49,0.00,40.00,6,2,0,0.01
2013-1-25,25,19,14,20,11,1,90,73,56,0.00,40.00,6,5,0,0.00
2013-1-26,29,23,14,19,17,12,91,75,66,0.00,40.00,8,2,0,0.02
2013-1-27,32,25,18,29,20,15,92,79,64,0.00,40.00,11,5,0,0.00
2013-1-28,46,39,32,45,37,30,97,94,87,0.00,40.00,8,5,0,0.48
2013-1-29,58,51,35,55,49,34,97,94,86,0.00,40.00,13,7,0,0.39
2013-1-30,52,42,27,51,40,25,97,95,85,0.00,40.00,13,4,0,0.55
2013-1-31,26,17,14,25,14,11,93,87,74,0.00,40.00,13,9,0,0.00
2013-2-1,14,12,9,12,8,4,90,84,74,0.00,40.00,8,7,0,0.00
2013-2-2,22,16,8,19,13,5,92,89,78,0.00,40.00,5,4,0,0.00
2013-2-3,22,17,11,17,12,9,91,81,65,0.00,40.00,10,5,0,0.00
2013-2-4,26,20,12,20,17,10,92,85,71,0.00,40.00,5,2,0,0.01
2013-2-5,29,21,11,27,18,8,94,87,74,0.00,40.00,8,4,0,0.01
2013-2-6,34,28,18,22,19,16,91,69,49,0.00,40.00,6,3,0,0.19
2013-2-7,37,31,27,31,25,21,95,77,66,0.00,40.00,7,4,0,0.09
2013-2-8,32,28,15,31,24,13,95,84,67,0.00,40.00,7,4,0,0.06
2013-2-9,33,21,7,21,15,4,91,76,58,0.00,40.00,7,4,0,0.04
2013-2-10,43,35,27,41,28,19,93,75,64,0.00,40.00,11,8,0,0.16
2013-2-11,46,36,30,42,28,21,92,72,62,0.00,40.00,17,13,0,0.01
2013-2-12,30,28,27,22,21,20,79,75,69,0.00,40.00,11,7,0,0.00
2013-2-13,42,31,21,28,23,19,91,74,56,0.00,40.00,6,2,0,0.00
2013-2-14,38,35,32,31,29,27,86,80,72,0.00,40.00,13,7,0,0.00
2013-2-15,33,25,19,26,19,12,90,77,60,0.00,40.00,9,4,0,0.01
2013-2-16,21,18,14,19,13,6,92,80,57,0.00,40.00,11,5,0,0.00
2013-2-17,27,16,1,15,8,-2,90,70,41,0.00,40.00,5,1,0,0.01
2013-2-18,47,34,20,42,23,9,90,64,53,0.00,40.00,12,8,0,0.19
2013-2-19,44,23,16,40,20,12,91,87,82,0.00,40.00,16,12,0,0.10
2013-2-20,22,19,16,17,14,12,88,80,74,0.00,40.00,9,8,0,0.00
2013-2-21,26,23,20,17,16,14,78,73,66,0.00,40.00,11,4,0,0.01
2013-2-22,33,26,22,31,23,15,94,86,72,0.00,40.00,13,8,0,0.01
2013-2-23,29,27,25,23,20,17,82,76,67,0.00,40.00,10,7,0,0.00
2013-2-24,34,29,20,25,22,18,92,75,67,0.00,40.00,7,4,0,0.05
2013-2-25,41,28,16,24,20,15,93,72,44,0.00,40.00,4,1,0,0.01
2013-2-26,36,32,29,31,25,20,96,76,56,0.00,40.00,13,8,0,0.10
2013-2-27,34,33,32,33,32,31,96,95,93,0.00,40.00,4,1,0,0.20
2013-2-28,36,33,31,32,29,26,96,84,74,0.00,40.00,8,6,0,0.00
2013-3-1,35,29,20,25,21,16,86,70,53,0.00,40.00,6,4,0,0.00
2013-3-2,29,25,18,19,16,12,85,69,58,0.00,40.00,8,5,0,0.00
2013-3-3,29,24,13,16,14,10,89,67,52,0.00,40.00,9,4,0,0.00
2013-3-4,35,25,11,17,14,9,90,65,44,0.00,40.00,5,2,0,0.00
2013-3-5,31,29,26,27,20,16,95,70,58,0.00,40.00,10,7,0,0.00
2013-3-6,34,31,26,29,26,24,94,85,72,0.00,40.00,9,5,0,0.06
2013-3-7,37,32,21,30,25,19,92,75,52,0.00,40.00,7,3,0,0.00
2013-3-8,41,28,15,22,18,13,91,70,40,0.00,40.00,3,1,0,0.00
2013-3-9,42,35,27,31,25,20,78,68,55,0.00,40.00,9,6,0,0.00
2013-3-10,55,52,42,42,39,31,66,62,55,0.00,40.00,10,7,0,0.02
2013-3-11,54,44,34,46,40,31,95,87,55,0.00,40.00,12,6,0,0.19
2013-3-12,34,32,29,30,27,21,94,83,63,0.00,40.00,13,8,0,0.04
2013-3-13,29,26,24,28,19,11,95,73,54,0.00,40.00,14,10,0,0.00
2013-3-14,36,26,15,22,15,10,90,64,34,0.00,40.00,8,2,0,0.07
2013-3-15,40,33,30,33,30,25,95,86,75,0.00,40.00,5,4,0,0.02
2013-3-16,34,31,28,32,27,20,95,85,70,0.00,40.00,8,6,0,0.01
2013-3-17,35,30,27,21,19,17,71,61,51,0.00,40.00,9,6,0,0.00
2013-3-18,33,29,26,32,25,19,94,83,67,0.00,40.00,15,8,0,0.07
2013-3-19,30,25,20,24,16,13,80,67,53,0.00,40.00,17,14,0,0.00
2013-3-20,29,22,18,15,13,11,88,68,54,0.00,40.00,12,10,0,0.00
2013-3-21,28,23,15,22,17,12,92,79,62,0.00,40.00,10,5,0,0.02
2013-3-22,33,28,24,22,19,16,89,67,59,0.00,40.00,7,3,0,0.02
2013-3-23,35,28,22,23,21,20,92,76,57,0.00,40.00,5,2,0,0.00
2013-3-24,37,31,25,24,22,21,85,71,58,0.00,40.00,11,7,0,0.00
2013-3-25,35,32,30,28,24,21,75,71,62,0.00,40.00,9,8,0,0.00
2013-3-26,37,34,32,29,28,26,86,79,72,0.00,40.00,10,6,0,0.00
2013-3-27,41,36,29,31,25,20,93,66,43,0.00,40.00,13,7,0,0.00
2013-3-28,45,35,26,29,25,22,93,71,43,0.00,40.00,8,3,0,0.00
2013-3-29,47,35,22,26,22,18,92,64,32,0.00,40.00,9,3,0,0.00
2013-3-30,56,40,21,32,23,-100,93,60,32,0.00,40.00,8,4,0,0.00
2013-3-31,52,46,38,42,36,28,94,69,52,0.00,40.00,13,8,0,0.05
2013-4-1,37,31,25,30,18,12,78,58,44,0.00,40.00,12,8,0,0.00
2013-4-2,37,31,24,22,16,12,83,55,36,0.00,40.00,12,6,0,0.00
2013-4-3,41,30,20,20,16,11,86,58,28,0.00,40.00,9,4,0,0.00
2013-4-4,52,38,22,20,17,14,89,48,22,0.00,40.00,9,5,0,0.00
2013-4-5,46,39,31,30,24,16,80,55,29,0.00,40.00,11,6,0,0.00
2013-4-6,62,46,32,38,26,22,79,48,29,0.00,40.00,13,9,0,0.00
2013-4-7,61,48,40,45,36,30,81,64,43,0.00,40.00,15,9,0,0.00
2013-4-8,61,45,38,52,38,30,95,78,65,0.00,40.00,19,9,0,0.12
2013-4-9,64,47,39,54,44,38,97,88,67,0.00,40.00,7,3,0,0.03
2013-4-10,47,42,39,44,40,37,94,90,85,0.00,40.00,10,7,0,0.10
2013-4-11,41,39,38,39,37,36,94,92,88,0.00,40.00,12,9,0,0.76
2013-4-12,44,39,37,37,35,32,96,84,65,0.00,40.00,13,8,0,0.13
2013-4-13,40,38,36,32,28,26,77,67,57,0.00,40.00,14,9,0,0.00
2013-4-14,58,43,30,42,34,27,90,71,53,0.00,40.00,12,6,0,0.01
2013-4-15,64,56,46,55,47,41,92,71,63,0.00,40.00,11,8,0,0.30
2013-4-16,47,44,41,43,36,30,96,75,51,0.00,40.00,8,4,0,0.16
2013-4-17,53,46,40,45,37,31,91,71,54,0.00,40.00,12,7,0,0.45
2013-4-18,68,56,46,62,53,43,96,90,81,0.00,40.00,12,7,0,0.99
2013-4-19,59,39,33,56,32,28,92,76,65,0.00,40.00,18,13,0,0.21
2013-4-20,38,33,29,28,21,17,86,59,42,0.00,40.00,12,8,0,0.00
2013-4-21,51,37,25,29,24,21,91,62,37,0.00,40.00,9,4,0,0.00
2013-4-22,64,50,35,32,30,27,74,49,25,0.00,40.00,7,5,0,0.00
2013-4-23,64,51,38,50,40,33,95,68,50,0.00,40.00,10,6,0,0.55
2013-4-24,44,38,34,37,30,22,95,73,42,0.00,40.00,11,7,0,0.12
2013-4-25,47,42,38,36,31,28,87,67,50,0.00,40.00,12,6,0,0.05
2013-4-26,63,49,35,39,33,27,72,54,37,0.00,40.00,12,5,0,0.00
2013-4-27,68,57,43,43,37,33,77,51,26,0.00,40.00,8,4,0,0.00
2013-4-28,60,54,49,51,46,39,89,75,50,0.00,40.00,5,2,0,0.08
2013-4-29,70,54,41,53,47,40,96,79,47,0.00,40.00,7,3,0,0.00
2013-4-30,79,72,57,58,56,51,81,58,46,0.00,40.00,12,9,0,0.00
2013-5-1,83,72,62,58,53,50,71,53,31,0.00,40.00,9,5,0,0.00
2013-5-2,79,65,47,55,50,42,81,61,41,0.00,40.00,8,5,0,0.00
2013-5-3,76,56,42,55,47,39,91,74,45,0.00,40.00,9,3,0,0.00
2013-5-4,74,65,57,46,42,32,55,43,22,0.00,40.00,9,6,0,0.00
2013-5-5,74,62,52,45,40,38,60,46,29,0.00,40.00,7,4,0,0.00
2013-5-6,77,62,47,44,37,29,75,43,18,0.00,40.00,7,3,0,0.00
2013-5-7,75,61,51,48,44,39,80,58,32,0.00,40.00,6,3,0,0.00
2013-5-8,76,64,50,52,47,39,90,58,29,0.00,40.00,8,3,0,0.00
2013-5-9,79,60,44,58,48,41,94,69,25,0.00,40.00,8,2,0,0.06
2013-5-10,60,53,45,58,49,-100,95,93,86,0.00,40.00,9,4,0,0.13
2013-5-11,52,44,37,47,39,-100,96,88,67,0.00,40.00,15,5,0,0.03
2013-5-12,45,40,32,35,30,27,93,67,47,0.00,40.00,12,8,0,0.00
2013-5-13,56,42,29,34,27,19,95,62,25,0.00,40.00,7,2,0,0.00
2013-5-14,77,61,48,55,38,24,67,44,35,0.00,40.00,11,6,0,0.00
2013-5-15,76,72,55,56,49,44,79,45,34,0.00,40.00,12,8,0,0.00
2013-5-16,77,53,45,48,22,-100,94,58,28,0.00,40.00,8,3,0,0.00
2013-5-17,75,62,55,49,36,-100,66,50,35,0.00,40.00,7,4,0,0.00
2013-5-18,79,66,54,61,49,41,91,55,41,0.00,40.00,7,4,0,0.00
2013-5-19,86,71,55,61,56,49,93,61,37,0.00,40.00,7,3,0,0.00
2013-5-20,87,78,69,67,62,54,83,59,33,0.00,40.00,11,6,0,0.00
2013-5-21,80,72,63,64,62,61,95,74,53,0.00,40.00,10,6,0,0.17
2013-5-22,71,66,59,65,62,57,94,88,78,0.00,40.00,8,4,0,0.24
2013-5-23,60,50,42,58,48,40,97,93,84,0.00,40.00,9,6,0,0.09
2013-5-24,52,45,34,40,36,33,94,72,52,0.00,40.00,9,4,0,0.00
2013-5-25,64,50,35,46,40,33,96,72,43,0.00,40.00,6,2,0,0.00
2013-5-26,68,54,39,43,40,37,95,63,32,0.00,40.00,6,2,0,0.00
2013-5-27,60,55,52,51,45,34,93,72,38,0.00,40.00,8,5,0,0.03
2013-5-28,77,65,54,68,61,52,96,86,72,0.00,40.00,10,4,0,1.04
2013-5-29,81,70,63,68,63,60,92,78,62,0.00,40.00,8,4,0,0.04
2013-5-30,84,76,69,67,64,61,76,66,51,0.00,40.00,11,6,0,0.00
2013-5-31,76,72,65,65,64,62,91,75,65,0.00,40.00,9,6,0,0.04
2013-6-1,76,70,65,64,60,-100,91,74,60,0.00,40.00,11,7,0,0.15
2013-6-2,62,55,45,59,49,40,93,80,64,0.00,40.00,11,7,0,0.00
2013-6-3,63,52,38,46,41,36,96,70,40,0.00,40.00,8,3,0,0.00
2013-6-4,72,59,43,51,46,41,95,66,38,0.00,40.00,5,3,0,0.00
2013-6-5,73,64,58,48,46,42,66,53,37,0.00,40.00,6,4,0,0.00
2013-6-6,67,61,57,54,49,46,78,65,53,0.00,40.00,6,4,0,0.00
2013-6-7,70,58,47,52,48,42,94,71,41,0.00,40.00,9,4,0,0.00
2013-6-8,72,59,43,53,47,41,95,69,37,0.00,40.00,7,2,0,0.00
2013-6-9,80,70,55,61,56,50,84,64,47,0.00,40.00,6,3,0,0.00
2013-6-10,71,66,59,65,63,58,95,89,65,0.00,40.00,6,3,0,0.40
2013-6-11,79,67,57,65,60,56,97,81,55,0.00,40.00,6,2,0,0.01
2013-6-12,82,72,63,70,66,61,95,82,65,0.00,40.00,7,2,0,0.00
2013-6-13,69,64,56,62,57,52,95,79,63,0.00,40.00,12,6,0,0.00
2013-6-14,76,62,50,57,53,49,96,76,45,0.00,40.00,8,2,0,0.00
2013-6-15,72,63,52,64,58,51,96,84,65,0.00,40.00,5,2,0,0.00
2013-6-16,79,70,63,64,62,54,92,76,41,0.00,40.00,7,5,0,0.00
2013-6-17,84,70,56,63,56,50,96,68,31,0.00,40.00,7,2,0,0.00
2013-6-18,73,66,59,59,55,48,92,69,45,0.00,40.00,5,3,0,0.00
2013-6-19,76,60,48,52,44,39,90,60,29,0.00,40.00,6,1,0,0.00
2013-6-20,83,63,48,56,51,47,96,71,35,0.00,40.00,2,0,0,0.00
2013-6-22,83,78,74,71,69,67,89,73,63,0.00,40.00,5,2,0,0.00
2013-6-23,88,76,66,70,64,62,91,70,43,0.00,40.00,8,4,0,0.00
2013-6-25,83,76,70,72,70,67,94,81,71,0.00,40.00,6,3,0,0.00
2013-6-26,82,71,66,69,67,65,97,89,62,0.00,40.00,6,3,0,1.29
2013-6-27,80,71,63,71,67,63,97,88,65,0.00,40.00,6,2,0,0.00
2013-6-28,76,69,63,65,62,60,96,79,58,0.00,40.00,7,3,0,0.04
2013-6-29,76,66,60,65,62,59,97,87,61,0.00,40.00,5,2,0,0.28
2013-6-30,79,68,61,62,60,58,92,76,50,0.00,40.00,7,3,0,0.01
2013-7-1,74,65,55,59,50,41,83,59,45,0.00,40.00,7,4,0,0.00
2013-7-2,64,60,56,60,54,45,96,82,53,0.00,40.00,4,3,0,0.59
2013-7-3,77,68,59,65,62,58,97,83,61,0.00,40.00,6,2,0,0.00
2013-7-4,78,69,59,64,61,58,97,79,55,0.00,40.00,4,1,0,0.00
2013-7-5,83,71,59,68,62,56,96,75,40,0.00,40.00,3,1,0,0.02
2013-7-6,81,70,65,68,66,64,96,87,60,0.00,40.00,4,1,0,0.00
2013-7-7,84,74,68,71,68,66,94,81,59,0.00,40.00,4,2,0,0.00
2013-7-8,78,74,71,71,69,66,93,85,69,0.00,40.00,6,2,0,0.02
2013-7-9,85,75,68,74,70,67,96,85,69,0.00,40.00,7,2,0,0.00
2013-7-10,80,72,60,74,61,-100,94,75,50,0.00,40.00,8,4,0,0.00
2013-7-11,77,66,54,63,56,53,96,72,46,0.00,40.00,6,2,0,0.00
2013-7-12,82,66,52,61,56,51,97,73,39,0.00,40.00,4,1,0,0.00
2013-7-13,83,70,56,65,61,55,96,74,50,0.00,40.00,4,2,0,0.00
2013-7-14,87,76,64,71,66,61,92,72,51,0.00,40.00,4,2,0,0.00
2013-7-15,90,75,67,74,70,66,95,85,57,0.00,40.00,4,1,0,0.37
2013-7-16,90,80,70,75,72,69,96,80,58,0.00,40.00,3,1,0,0.00
2013-7-17,89,80,70,75,72,69,96,78,57,0.00,40.00,4,1,0,0.00
2013-7-18,91,84,71,76,73,70,96,70,50,0.00,40.00,4,2,0,0.00
2013-7-19,92,84,75,72,70,67,87,65,44,0.00,40.00,9,5,0,0.10
2013-7-20,84,76,67,72,63,-100,94,69,44,0.00,40.00,5,2,0,0.00
2013-7-21,84,73,61,67,62,56,93,70,51,0.00,40.00,5,2,0,1.81
2013-7-22,83,72,64,68,65,63,97,81,55,0.00,40.00,5,3,0,0.03
2013-7-23,78,71,59,67,62,50,90,75,61,0.00,40.00,9,4,0,0.00
2013-7-24,72,60,49,54,50,47,92,71,48,0.00,40.00,5,3,0,0.00
2013-7-25,76,63,51,58,54,49,96,74,49,0.00,40.00,4,2,0,0.00
2013-7-26,74,65,57,60,57,54,93,76,57,0.00,40.00,5,3,0,0.00
2013-7-27,69,62,56,62,58,50,96,85,70,0.00,40.00,6,3,0,0.01
2013-7-28,64,58,54,54,52,50,95,81,63,0.00,40.00,6,3,0,0.23
2013-7-29,69,62,54,57,55,52,94,78,61,0.00,40.00,5,2,0,0.00
2013-7-30,78,64,50,64,57,49,97,78,52,0.00,40.00,2,1,0,0.00
2013-7-31,69,66,64,66,64,59,95,91,76,0.00,40.00,3,1,0,0.06
2013-8-1,76,67,57,64,60,54,97,80,49,0.00,40.00,6,2,0,0.00
2013-8-2,75,65,54,65,60,53,96,86,70,0.00,40.00,4,1,0,0.00
2013-8-3,76,67,55,63,57,52,96,72,44,0.00,40.00,6,2,0,0.00
2013-8-4,73,63,52,58,54,51,97,75,51,0.00,40.00,5,2,0,0.00
2013-8-5,72,60,48,64,55,47,97,85,60,0.00,40.00,4,1,0,0.00
2013-8-6,79,69,63,69,64,60,93,85,71,0.00,40.00,4,2,0,0.03
2013-8-7,81,70,64,73,67,63,97,90,74,0.00,40.00,4,2,0,1.34
2013-8-8,78,67,60,62,58,57,96,76,49,0.00,40.00,4,2,0,0.00
2013-8-9,78,68,54,66,59,53,97,77,49,0.00,40.00,3,1,0,0.00
2013-8-10,79,70,61,63,58,54,96,71,42,0.00,40.00,5,2,0,0.00
2013-8-11,77,67,56,63,58,55,97,76,48,0.00,40.00,4,1,0,0.00
2013-8-12,78,68,63,67,64,61,96,88,66,0.00,40.00,4,2,0,0.42
2013-8-13,67,60,53,62,53,49,97,78,56,0.00,40.00,7,4,0,0.01
2013-8-14,69,57,46,52,48,44,95,74,48,0.00,40.00,4,2,0,0.00
2013-8-15,74,54,45,57,41,-100,97,76,55,0.00,40.00,4,1,0,0.00
2013-8-16,78,62,50,60,49,-100,97,73,40,0.00,40.00,3,1,0,0.00
2013-8-17,79,65,55,62,54,-100,96,71,41,0.00,40.00,4,2,0,0.00
2013-8-18,81,65,50,60,56,49,97,76,42,0.00,40.00,4,1,0,0.00
2013-8-19,81,64,54,64,49,-100,97,73,45,0.00,40.00,4,1,0,0.00
2013-8-20,84,70,57,70,63,56,97,80,55,0.00,40.00,3,1,0,0.00
2013-8-21,86,74,62,68,65,61,95,74,47,0.00,40.00,4,2,0,0.00
2013-8-22,76,69,65,70,66,63,97,91,71,0.00,40.00,8,2,0,0.86
2013-8-23,79,69,58,66,59,51,97,73,38,0.00,40.00,3,2,0,0.00
2013-8-24,81,64,52,63,54,-100,97,75,41,0.00,40.00,4,1,0,0.00
2013-8-25,86,71,57,66,61,56,95,74,47,0.00,40.00,4,2,0,0.00
2013-8-26,84,74,64,72,65,60,88,73,59,0.00,40.00,4,2,0,0.00
2013-8-27,88,77,70,73,70,68,94,80,62,0.00,40.00,4,2,0,0.00
2013-8-28,81,77,68,73,71,67,95,80,70,0.00,40.00,4,2,0,0.00
2013-8-29,87,73,62,70,65,61,97,79,48,0.00,40.00,2,1,0,0.00
2013-8-30,90,76,64,73,68,63,97,80,51,0.00,40.00,5,2,0,0.24
2013-8-31,80,71,64,71,64,-100,97,82,62,0.00,40.00,3,1,0,0.01
2013-9-1,81,73,67,71,67,65,94,83,66,0.00,40.00,4,2,0,0.00
2013-9-2,72,66,58,68,60,52,96,82,63,0.00,40.00,6,3,0,0.00
2013-9-3,72,62,53,57,54,52,95,75,57,0.00,40.00,5,2,0,0.00
2013-9-4,76,61,50,61,55,49,97,82,53,0.00,40.00,5,2,0,0.00
2013-9-5,74,64,56,59,51,41,96,68,30,0.00,40.00,4,2,0,0.00
2013-9-6,80,62,48,63,52,47,95,73,37,0.00,40.00,4,1,0,0.00
2013-9-7,83,69,60,68,59,-100,93,74,50,0.00,40.00,4,2,0,0.00
2013-9-8,78,69,62,66,63,61,97,82,59,0.00,40.00,5,2,0,0.00
2013-9-9,87,72,61,72,64,56,85,75,56,0.00,40.00,5,4,0,0.00
2013-9-10,93,82,73,71,66,59,83,62,33,0.00,40.00,6,3,0,0.00
2013-9-11,87,80,68,68,66,65,90,64,52,0.00,40.00,5,3,0,0.00
2013-9-12,77,67,59,65,58,50,95,74,42,0.00,40.00,6,2,0,0.00
2013-9-13,63,56,47,49,44,40,90,66,44,0.00,40.00,6,4,0,0.00
2013-9-14,69,53,37,48,40,-100,96,68,34,0.00,40.00,4,1,0,0.00
2013-9-15,58,52,45,55,49,42,97,88,69,0.00,40.00,2,1,0,0.00
2013-9-16,64,55,50,54,50,45,97,82,55,0.00,40.00,4,3,0,0.00
2013-9-17,69,55,42,54,46,41,96,76,44,0.00,40.00,4,2,0,0.00
2013-9-18,67,54,52,59,49,48,89,84,75,0.00,40.00,2,1,0,0.00
2013-9-19,71,67,61,67,64,59,96,91,80,0.00,40.00,6,3,0,0.32
2013-9-20,73,70,65,69,65,58,94,85,76,0.00,40.00,6,4,0,0.00
2013-9-21,64,58,55,56,49,-100,90,74,54,0.00,40.00,7,3,0,0.03
2013-9-22,63,54,44,49,45,42,95,71,46,0.00,40.00,5,2,0,0.00
2013-9-23,66,52,39,48,44,38,96,77,50,0.00,40.00,5,2,0,0.00
2013-9-24,69,55,43,50,46,42,95,73,43,0.00,40.00,4,2,0,0.00
2013-9-25,72,56,46,54,49,44,96,80,47,0.00,40.00,4,2,0,0.00
2013-9-26,77,59,45,54,48,44,97,73,32,0.00,40.00,4,2,0,0.00
2013-9-27,78,60,43,56,48,42,96,71,34,0.00,40.00,5,2,0,0.00
2013-9-28,80,63,52,55,49,-100,95,68,35,0.00,40.00,7,3,0,0.00
2013-9-29,70,61,49,60,54,48,97,78,52,0.00,40.00,4,3,0,0.23
2013-9-30,72,56,43,54,49,42,98,79,41,0.00,40.00,4,1,0,0.00
2013-10-1,68,65,61,62,61,59,92,86,77,0.00,40.00,3,2,0,0.00
2013-10-2,79,66,51,63,52,41,97,66,26,0.00,40.00,3,1,0,0.00
2013-10-3,72,65,56,67,61,50,95,86,75,0.00,40.00,6,2,0,0.04
2013-10-4,78,69,63,67,65,62,95,85,65,0.00,40.00,4,2,0,0.01
2013-10-5,74,69,66,69,67,65,97,93,86,0.00,40.00,5,3,0,2.30
2013-10-6,66,59,53,65,56,44,97,90,58,0.00,40.00,6,3,0,0.20
2013-10-7,60,50,44,50,45,41,97,82,58,0.00,40.00,8,3,0,0.09
2013-10-8,72,53,43,50,45,42,97,78,40,0.00,40.00,5,3,0,0.00
2013-10-9,71,62,49,50,47,44,95,60,37,0.00,40.00,4,2,0,0.00
2013-10-10,74,56,45,52,46,43,97,74,34,0.00,40.00,3,1,0,0.00
2013-10-11,73,57,45,52,46,43,97,73,34,0.00,40.00,3,2,0,0.00
2013-10-12,75,60,50,62,51,-100,96,76,44,0.00,40.00,8,3,0,0.13
2013-10-13,61,54,39,58,45,38,96,74,51,0.00,40.00,9,4,0,0.01
2013-10-14,63,49,36,43,41,35,97,76,46,0.00,40.00,5,2,0,0.00
2013-10-15,63,54,43,60,50,41,97,88,74,0.00,40.00,6,4,0,0.25
2013-10-16,61,51,48,59,47,44,97,87,75,0.00,40.00,7,5,0,0.12
2013-10-17,49,49,47,48,47,46,97,95,94,0.00,40.00,7,4,0,0.50
2013-10-18,54,45,39,47,41,38,97,86,71,0.00,40.00,9,4,0,0.01
2013-10-19,52,45,42,42,37,-100,94,77,49,0.00,40.00,10,4,0,0.15
2013-10-20,58,50,41,43,41,39,94,74,49,0.00,40.00,10,5,0,0.06
2013-10-21,56,48,41,48,40,27,96,75,58,0.00,40.00,10,6,0,0.19
2013-10-22,44,41,36,34,30,25,89,67,56,0.00,40.00,9,6,0,0.00
2013-10-23,41,37,33,36,32,25,97,84,55,0.00,40.00,8,3,0,0.05
2013-10-24,37,34,32,35,33,31,97,95,88,0.00,40.00,4,2,0,0.31
2013-10-25,45,39,33,36,31,28,97,76,52,0.00,40.00,8,4,0,0.15
2013-10-26,49,44,41,38,29,-100,75,59,54,0.00,40.00,12,8,0,0.00
2013-10-27,51,43,36,38,34,30,96,73,44,0.00,40.00,9,3,0,0.00
2013-10-28,54,41,31,39,32,-100,97,76,54,0.00,40.00,5,2,0,0.00
2013-10-29,53,41,33,40,35,30,92,78,57,0.00,40.00,5,2,0,0.00
2013-10-30,61,50,38,54,44,37,95,82,61,0.00,40.00,6,3,0,0.35
2013-10-31,61,59,55,61,58,54,98,97,95,0.00,40.00,11,6,0,2.14
2013-11-1,52,47,45,51,42,36,97,84,67,0.00,40.00,13,8,0,0.21
2013-11-2,46,43,41,44,39,-100,96,89,75,0.00,40.00,8,4,0,0.29
2013-11-3,49,44,38,40,35,34,96,72,56,0.00,40.00,5,3,0,0.00
2013-11-4,51,44,38,39,35,32,84,69,53,0.00,40.00,9,6,0,0.00
2013-11-5,54,51,49,48,43,40,86,74,66,0.00,40.00,8,4,0,0.00
2013-11-6,55,51,42,53,47,38,96,86,64,0.00,40.00,10,8,0,0.78
2013-11-7,43,40,38,35,30,27,73,66,60,0.00,40.00,9,8,0,0.00
2013-11-8,45,39,31,33,29,25,86,65,49,0.00,40.00,7,4,0,0.01
2013-11-9,53,47,41,40,32,-100,67,59,49,0.00,40.00,14,9,0,0.00
2013-11-10,45,41,33,32,30,25,86,63,51,0.00,40.00,16,9,0,0.00
2013-11-11,45,38,28,38,31,23,96,77,67,0.00,40.00,9,5,0,0.14
2013-11-12,32,28,23,23,20,17,86,72,58,0.00,40.00,9,4,0,0.03
2013-11-13,33,27,23,23,20,19,85,75,64,0.00,40.00,8,4,0,0.00
2013-11-14,46,41,34,25,23,20,55,47,41,0.00,40.00,11,8,0,0.00
2013-11-15,48,43,36,32,27,24,73,55,43,0.00,40.00,8,5,0,0.00
2013-11-16,56,47,38,51,39,-100,87,78,68,0.00,40.00,10,7,0,0.02
2013-11-17,63,55,45,59,52,39,92,87,77,0.00,40.00,23,12,0,0.58
2013-11-18,45,40,37,38,32,27,76,73,67,0.00,40.00,14,11,0,0.00
2013-11-19,44,37,28,25,24,23,82,62,45,0.00,40.00,3,2,0,0.00
2013-11-20,43,35,28,34,25,23,82,68,48,0.00,40.00,8,4,0,0.07
2013-11-21,50,44,37,44,39,35,97,82,69,0.00,40.00,8,4,0,0.10
2013-11-22,45,38,26,44,35,24,98,88,68,0.00,40.00,9,5,0,0.01
2013-11-23,31,25,17,25,16,-100,92,72,56,0.00,40.00,13,7,0,0.00
2013-11-24,23,18,15,18,11,3,92,74,51,0.00,40.00,7,3,0,0.00
2013-11-25,29,24,17,26,13,4,93,64,51,0.00,40.00,9,7,0,0.00
2013-11-26,33,30,26,26,23,17,83,76,62,0.00,40.00,8,5,0,0.01
2013-11-27,29,23,20,24,20,16,95,88,59,0.00,40.00,7,4,0,0.00
2013-11-28,28,24,20,21,16,13,95,73,55,0.00,40.00,6,3,0,0.00
2013-11-29,35,28,24,21,19,17,84,70,49,0.00,40.00,4,2,0,0.06
2013-11-30,44,35,29,28,22,-100,73,61,52,0.00,40.00,8,5,0,0.02
2013-12-1,43,36,28,31,28,25,92,74,53,0.00,40.00,6,2,0,0.00
2013-12-2,39,33,27,29,27,26,95,79,60,0.00,40.00,6,2,0,0.00
2013-12-3,46,37,31,45,35,27,96,91,74,0.00,40.00,6,5,0,0.13
2013-12-4,58,48,44,53,47,43,98,94,86,0.00,40.00,9,5,0,0.01
2013-12-5,55,36,28,51,29,19,85,76,67,0.00,40.00,12,9,0,0.00
2013-12-6,28,25,23,20,17,13,72,70,64,0.00,40.00,7,6,0,0.00
2013-12-7,23,19,12,14,10,-100,88,71,65,0.00,40.00,7,5,0,0.00
2013-12-8,24,19,12,23,14,10,95,82,65,0.00,40.00,6,3,0,0.00
2013-12-9,27,23,17,25,18,8,95,80,65,0.00,40.00,13,9,0,0.00
2013-12-10,22,14,4,16,6,-4,90,72,56,0.00,40.00,12,8,0,0.00
2013-12-11,21,20,16,20,16,11,94,86,67,0.00,40.00,11,6,0,0.00
2013-12-12,22,17,7,15,8,-8,76,68,49,0.00,40.00,11,7,0,0.00
2013-12-13,31,22,14,19,14,10,83,73,58,0.00,40.00,5,3,0,0.03
2013-12-14,26,21,19,21,17,-100,93,88,75,0.00,40.00,7,5,0,0.00
2013-12-15,25,20,18,21,13,8,91,76,63,0.00,40.00,11,7,0,0.00
2013-12-16,22,18,13,15,10,6,91,71,54,0.00,40.00,6,3,0,0.01
2013-12-17,32,26,17,27,20,15,94,82,62,0.00,40.00,9,7,0,0.00
2013-12-18,31,28,25,19,16,11,71,61,48,0.00,40.00,9,7,0,0.00
2013-12-19,41,36,31,33,29,19,87,75,58,0.00,40.00,7,4,0,0.05
2013-12-20,39,34,32,38,34,32,98,98,96,0.00,40.00,4,2,0,0.33
2013-12-21,34,32,31,33,30,-100,98,96,95,0.00,40.00,6,2,0,0.27
2013-12-22,33,32,31,32,31,28,97,95,92,0.00,40.00,5,1,0,0.25
2013-12-23,30,25,14,28,20,10,89,82,72,0.00,40.00,9,7,0,0.00
2013-12-24,15,10,4,10,6,1,89,86,74,0.00,40.00,7,5,0,0.00
2013-12-25,25,20,12,24,16,8,95,83,71,0.00,40.00,8,6,0,0.00
2013-12-26,27,26,24,25,20,15,96,78,63,0.00,40.00,9,6,0,0.00
2013-12-27,40,34,28,29,27,24,95,76,57,0.00,40.00,8,4,0,0.09
2013-12-28,47,40,33,32,30,28,80,66,54,0.00,40.00,12,7,0,0.00
2013-12-29,38,31,21,31,25,15,88,77,65,0.00,40.00,12,8,0,0.00
2013-12-30,20,18,15,15,11,7,90,76,66,0.00,40.00,8,5,0,0.00
2013-12-31,15,14,13,12,11,10,91,88,82,0.00,40.00,8,5,0,0.00
2014-1-1,14,12,10,11,10,7,91,89,88,0.00,40.00,6,4,0,0.00
2014-1-2,14,11,3,10,6,-5,90,81,55,0.00,40.00,8,6,0,0.00